Gulliver, Michigan
Current Conditions -  °F | °C
As of 10:14 PM on Monday 20 Oct 2014 (Local Time) from KISQ Reporting Station
Drizzle Drizzle  
Wind Chill: 39°   Ceiling: 700
Heat Index: 43°   Visibility: 3mi
Dew Point: 42°   Wind: 7mph
Humidity: 97%   Direction: 330°NNW
Pressure: 29.97"   Gusts: NA
Location:  45.99°N, 86.01°W
Report Text: KISQ 210214Z AUTO 33006KT 3SM DZ OVC007 06/06 A2997 RMK AO2 T00600055
Loading
Personal Weather Stations






























Interactive Weather Map
Tropical Storm Tracking
New forecast layout! Learn more

10-Day Weather Forecast

Advertisements
Track Severe Weather on mobile